Latest Weather Observations for Liawenee

IDT60801

Issued at 11:35 am EST Friday 22 August 2014 (issued every 30 minutes, with the page automatically refreshed every 10 minutes)

About weather observations | Map of weather stations | Latest weather observations for TAS | Other Formats
Station Details ID: 096033 Name: LIAWENEE Lat: -41.90 Lon: 146.67 Height: 1057.0 m
Data from the previous 72 hours. | See also: Recent months at Liawenee
Date/Time
EST
Temp
°C
App
Temp
°C
Dew
Point
Rel
Hum
%
Delta-T
°C
Wind Press
QNH
hPa
Press
MSL
hPa
Rain
since 9 am
mm
Dir
 
Spd
km/h
Gust
km/h
Spd
kts
Gust
kts
22/11:30am 6.9 2.7 3.7 80 1.4 NNE 15 28 8 15 1030.8 - 0.0
22/11:00am 7.1 3.4 4.4 83 1.2 NNE 13 32 7 17 1031.0 1033.4 0.0
22/10:30am 6.6 1.9 3.4 80 1.4 N 17 28 9 15 1031.3 - 0.0
22/10:00am 5.4 1.2 3.6 88 0.8 NNE 15 24 8 13 1031.4 1033.8 0.0
22/09:30am 4.7 0.8 3.4 91 0.6 NNE 13 20 7 11 1031.3 - 0.0
22/09:00am 4.7 1.1 3.0 89 0.7 N 11 24 6 13 1031.3 1033.7 0.0
22/08:30am 4.2 -0.2 2.9 91 0.6 NNE 15 24 8 13 1031.3 - 0.0
22/08:00am 3.8 -0.6 2.8 93 0.4 N 15 28 8 15 1031.1 1033.6 0.0
22/07:30am 3.6 -1.1 2.9 95 0.3 NNE 17 32 9 17 1030.9 - 0.0
22/07:00am 3.5 -0.9 2.8 95 0.3 N 15 26 8 14 1030.6 1033.0 0.0
22/06:30am 3.3 -0.7 2.6 95 0.3 N 13 28 7 15 1030.4 - 0.0
22/06:00am 3.3 -1.6 2.1 92 0.5 N 17 26 9 14 1030.5 1032.9 0.0
22/05:30am 3.3 -1.9 2.4 94 0.4 N 19 33 10 18 1030.4 - 0.0
22/05:00am 3.2 -1.2 2.6 96 0.3 N 15 28 8 15 1030.1 1032.5 0.0
22/04:30am 3.1 -0.2 2.5 96 0.3 N 9 20 5 11 1030.1 - 0.0
22/04:00am 3.3 -0.3 2.7 96 0.3 N 11 24 6 13 1030.0 1032.4 0.0
22/03:30am 3.2 -0.1 2.6 96 0.3 N 9 17 5 9 1029.8 - 0.0
22/03:00am 3.2 -0.1 2.3 94 0.4 N 9 19 5 10 1029.8 1032.2 0.0
22/02:30am 3.3 -0.4 2.6 95 0.3 N 11 24 6 13 1029.9 - 0.0
22/02:00am 3.2 -1.7 2.3 94 0.4 N 17 32 9 17 1030.1 1032.5 0.0
22/01:30am 3.4 -0.7 2.2 92 0.5 N 13 32 7 17 1030.4 - 0.0
22/01:00am 3.3 -0.4 2.1 92 0.5 N 11 22 6 12 1030.5 1032.9 0.0
22/12:30am 3.6 -0.2 2.0 89 0.7 NNE 11 24 6 13 1030.6 - 0.0
22/12:00am 3.5 -0.3 1.9 89 0.7 N 11 24 6 13 1030.9 1033.3 0.0
 
Date/Time
EST
Temp
°C
App
Temp
°C
Dew
Point
Rel
Hum
%
Delta-T
°C
Wind Press
QNH
hPa
Press
MSL
hPa
Rain
since 9 am
mm
Dir
 
Spd
km/h
Gust
km/h
Spd
kts
Gust
kts
21/11:30pm 3.3 -0.5 1.5 88 0.8 N 11 24 6 13 1030.9 - 0.0
21/11:00pm 3.7 -0.5 1.7 87 0.8 N 13 26 7 14 1030.8 1033.2 0.0
21/10:30pm 3.8 0.0 1.7 86 0.9 N 11 20 6 11 1030.8 - 0.0
21/10:00pm 4.1 0.4 2.1 87 0.8 NNE 11 17 6 9 1030.9 1033.3 0.0
21/09:30pm 4.1 0.4 2.5 89 0.7 N 11 20 6 11 1030.8 - 0.0
21/09:00pm 3.9 -0.2 2.3 89 0.7 NNE 13 26 7 14 1030.9 1033.3 0.0
21/08:30pm 3.9 0.2 2.3 89 0.7 NNE 11 17 6 9 1030.8 - 0.0
21/08:00pm 3.8 0.1 2.5 91 0.6 NNE 11 19 6 10 1030.8 1033.2 0.0
21/07:30pm 3.7 0.0 2.4 91 0.6 NE 11 17 6 9 1030.7 - 0.0
21/07:00pm 2.9 -0.1 1.7 92 0.5 NE 7 9 4 5 1030.7 1033.1 0.0
21/06:30pm 2.8 -1.1 1.2 89 0.7 NNE 11 15 6 8 1030.6 - 0.0
21/06:00pm 3.8 -0.4 1.7 86 0.9 NE 13 17 7 9 1030.5 1032.9 0.0
21/05:30pm 4.5 0.7 1.7 82 1.2 NNE 11 17 6 9 1030.1 - 0.0
21/05:00pm 5.1 0.9 1.6 78 1.5 NNE 13 19 7 10 1030.0 1032.4 0.0
21/04:30pm 5.6 1.0 1.3 74 1.8 NNE 15 26 8 14 1030.0 - 0.0
21/04:00pm 6.1 2.6 1.4 72 2.0 N 9 15 5 8 1030.0 1032.4 0.0
21/03:30pm 6.0 0.9 1.0 70 2.1 N 17 28 9 15 1029.8 - 0.0
21/03:00pm 6.4 0.7 0.7 67 2.4 NNE 20 30 11 16 1029.7 1032.1 0.0
21/02:30pm 7.1 2.4 0.8 64 2.7 N 15 30 8 16 1029.7 - 0.0
21/02:00pm 7.6 3.5 2.1 68 2.4 N 13 24 7 13 1029.7 1032.1 0.0
21/01:30pm 7.7 2.7 1.5 65 2.7 N 17 28 9 15 1029.7 - 0.0
21/01:00pm 7.3 2.7 1.4 66 2.5 N 15 28 8 15 1029.9 1032.3 0.0
21/12:30pm 7.7 2.2 0.9 62 2.9 NNE 19 28 10 15 1029.9 - 0.0
21/12:00pm 7.4 3.1 1.0 64 2.7 N 13 26 7 14 1030.3 1032.7 0.0
21/11:30am 7.0 2.3 1.1 66 2.5 N 15 24 8 13 1030.4 - 0.0
21/11:00am 6.5 2.2 1.2 69 2.2 N 13 20 7 11 1030.6 1033.0 0.0
21/10:30am 5.7 1.0 1.2 73 1.9 N 15 24 8 13 1030.7 - 0.0
21/10:00am 5.0 0.3 1.1 76 1.6 NNE 15 20 8 11 1030.6 1033.0 0.0
21/09:30am 4.2 0.9 2.6 89 0.7 NNE 9 17 5 9 1030.6 - 0.0
21/09:00am 1.6 -1.9 1.5 99 0.0 NE 9 11 5 6 1030.5 1032.9 0.0
21/08:30am -1.7 -3.9 -1.8 99 0.0 CALM 0 0 0 0 1030.6 - 0.0
21/08:00am -2.7 -5.1 -2.8 99 -0.1 CALM 0 0 0 0 1030.5 1032.9 0.0
21/07:30am -3.2 -5.6 -3.3 99 -0.1 CALM 0 0 0 0 1029.9 - 0.0
21/07:00am -4.0 -7.6 -4.0 100 0.0 N 6 7 3 4 1029.6 1032.0 0.0
21/06:30am -5.4 -8.0 -5.4 100 0.0 CALM 0 7 0 4 1029.3 - 0.0
21/06:00am -7.2 -10.1 -7.9 95 -0.1 CALM 0 0 0 0 1029.0 1031.4 0.0
21/05:30am -6.7 -9.5 -7.4 95 0.0 CALM 0 0 0 0 1028.9 - 0.0
21/05:00am -5.4 -9.2 -5.7 98 -0.1 WSW 6 7 3 4 1028.8 1031.2 0.0
21/04:30am -5.2 -9.0 -5.5 98 -0.1 WSW 6 7 3 4 1028.5 - 0.0
21/04:00am -5.6 -8.3 -5.9 98 -0.1 CALM 0 6 0 3 1028.4 1030.7 0.0
21/03:30am -5.5 -8.9 -5.6 99 -0.2 SW 4 7 2 4 1028.3 - 0.0
21/03:00am -5.8 -8.5 -6.3 96 -0.1 CALM 0 0 0 0 1028.1 1030.5 0.0
21/02:30am -5.0 -7.6 -5.3 98 -0.1 CALM 0 0 0 0 1028.3 - 0.0
21/02:00am -4.5 -7.1 -4.6 99 -0.2 CALM 0 0 0 0 1028.3 1030.6 0.0
21/01:30am -5.0 -7.6 -5.4 97 -0.1 CALM 0 0 0 0 1028.4 - 0.0
21/01:00am -4.7 -7.7 -5.4 95 0.0 SSW 2 7 1 4 1028.3 1030.6 0.0
21/12:30am -3.6 -6.1 -3.9 98 -0.1 CALM 0 0 0 0 1028.1 - 0.0
21/12:00am -3.6 -6.5 -3.9 98 -0.1 SW 2 7 1 4 1028.3 1030.6 0.0
 
Date/Time
EST
Temp
°C
App
Temp
°C
Dew
Point
Rel
Hum
%
Delta-T
°C
Wind Press
QNH
hPa
Press
MSL
hPa
Rain
since 9 am
mm
Dir
 
Spd
km/h
Gust
km/h
Spd
kts
Gust
kts
20/11:30pm -3.8 -6.3 -4.2 97 0.0 CALM 0 0 0 0 1028.1 - 0.0
20/11:00pm -3.9 -7.2 -4.4 96 0.0 NE 4 9 2 5 1028.1 1030.5 0.0
20/10:30pm -3.0 -5.4 -3.4 97 0.0 CALM 0 0 0 0 1028.0 - 0.0
20/10:00pm -2.0 -4.3 -2.3 98 0.0 CALM 0 0 0 0 1027.9 1030.3 0.0
20/09:30pm -2.4 -4.8 -3.4 93 0.2 CALM 0 0 0 0 1027.9 - 0.0
20/09:00pm -1.4 -3.6 -1.7 98 0.0 CALM 0 0 0 0 1027.7 1030.0 0.0
20/08:30pm -1.7 -4.0 -2.1 97 0.1 CALM 0 0 0 0 1027.6 - 0.0
20/08:00pm -1.8 -4.1 -2.5 95 0.2 CALM 0 0 0 0 1027.3 1029.6 0.0
20/07:30pm -1.5 -3.8 -2.6 92 0.3 CALM 0 0 0 0 1027.0 - 0.0
20/07:00pm 0.3 -3.0 -1.0 91 0.5 SE 6 9 3 5 1026.8 1029.1 0.0
20/06:30pm 1.9 -1.8 -0.3 85 0.9 NE 9 17 5 9 1026.5 - 0.0
20/06:00pm 2.0 -2.2 -0.6 83 1.0 SE 11 13 6 7 1026.0 1028.3 0.0
20/05:30pm 3.8 -0.2 0.3 78 1.4 SE 11 13 6 7 1025.7 - 0.0
20/05:00pm 6.2 1.9 0.7 68 2.3 SE 13 17 7 9 1025.4 1027.6 0.0
20/04:30pm 7.3 2.6 0.7 63 2.8 SE 15 19 8 10 1025.0 - 0.0
20/04:00pm 7.8 3.0 0.5 60 3.1 SE 15 19 8 10 1024.8 1027.1 0.0
20/03:30pm 8.3 3.9 0.5 58 3.3 ESE 13 17 7 9 1024.7 - 0.0
20/03:00pm 8.5 4.2 1.0 59 3.2 SE 13 19 7 10 1024.5 1026.7 0.0
20/02:30pm 8.8 4.7 0.0 54 3.7 ESE 11 20 6 11 1024.4 - 0.0
20/02:00pm 8.4 4.2 -0.9 52 3.8 ESE 11 19 6 10 1024.2 1026.4 0.0
20/01:30pm 8.5 4.1 0.2 56 3.5 SE 13 20 7 11 1023.9 - 0.0
20/01:00pm 8.3 4.7 0.8 59 3.2 SE 9 13 5 7 1024.1 1026.3 0.0
20/12:30pm 7.6 4.1 1.2 64 2.8 E 9 13 5 7 1024.3 - 0.0
20/12:00pm 7.3 4.3 1.8 68 2.4 ENE 7 15 4 8 1024.5 1026.7 0.0
20/11:30am 6.8 4.0 2.3 73 2.0 ENE 6 9 3 5 1024.6 - 0.0
20/11:00am 5.4 3.2 1.3 75 1.7 SE 2 7 1 4 1024.7 1027.0 0.0
20/10:30am 4.2 1.1 1.2 81 1.3 SW 7 9 4 5 1024.5 - 0.0
20/10:00am 3.3 0.2 1.3 87 0.8 S 7 11 4 6 1024.3 1026.5 0.0
20/09:30am 2.1 -0.6 0.3 88 0.7 SSW 4 9 2 5 1024.3 - 0.0
20/09:00am 1.1 -2.2 -0.1 92 0.5 WSW 7 9 4 5 1024.1 1026.3 0.0
20/08:30am 0.0 -3.4 -0.7 95 0.3 W 7 9 4 5 1023.8 - 0.0
20/08:00am -1.9 -5.6 -2.5 96 0.1 W 7 7 4 4 1023.8 1026.1 0.0
20/07:30am -2.4 -6.5 -2.7 98 0.0 W 9 11 5 6 1023.3 - 0.0
20/07:00am -3.1 -7.3 -3.5 97 0.0 W 9 11 5 6 1022.9 1025.1 0.0
20/06:30am -2.6 -6.7 -2.9 98 0.0 W 9 11 5 6 1022.5 - 0.0
20/06:00am -1.4 -5.7 -1.5 99 0.0 W 11 13 6 7 1022.4 1024.6 0.0
20/05:30am -1.5 -5.4 -1.6 99 0.0 W 9 11 5 6 1022.5 - 0.0
20/05:00am -1.6 -5.5 -1.7 99 0.0 W 9 13 5 7 1022.5 1024.7 0.0
20/04:30am -1.6 -5.2 -1.9 98 0.0 W 7 11 4 6 1022.3 - 0.0
20/04:00am -1.1 -5.0 -1.2 99 0.0 W 9 13 5 7 1022.1 1024.2 0.0
20/03:30am -1.0 -5.6 -1.1 99 0.0 W 13 17 7 9 1022.1 - 0.0
20/03:00am -1.2 -5.5 -1.5 98 0.1 W 11 15 6 8 1022.1 1024.2 0.0
20/02:30am -1.3 -5.2 -1.6 98 0.0 W 9 13 5 7 1022.3 - 0.0
20/02:00am -0.7 -4.5 -1.1 97 0.1 W 9 15 5 8 1022.4 1024.6 0.0
20/01:30am -0.1 -3.9 -0.5 97 0.1 W 9 13 5 7 1022.4 - 0.0
20/01:00am 0.0 -3.8 -0.4 97 0.2 WSW 9 9 5 5 1022.3 1024.5 0.0
20/12:30am -0.2 -4.4 -0.6 97 0.1 WSW 11 17 6 9 1022.2 - 0.0
20/12:00am -0.2 -3.6 -0.8 96 0.2 WSW 7 9 4 5 1022.3 1024.5 0.0
 
Date/Time
EST
Temp
°C
App
Temp
°C
Dew
Point
Rel
Hum
%
Delta-T
°C
Wind Press
QNH
hPa
Press
MSL
hPa
Rain
since 9 am
mm
Dir
 
Spd
km/h
Gust
km/h
Spd
kts
Gust
kts
19/11:30pm -0.2 -4.0 -1.0 94 0.3 WSW 9 11 5 6 1022.2 - 0.0
19/11:00pm 0.5 -4.0 -0.4 94 0.3 WSW 13 17 7 9 1022.1 1024.2 0.0
19/10:30pm 0.9 -3.6 -0.4 91 0.5 SW 13 19 7 10 1022.1 - 0.0
19/10:00pm 1.0 -3.5 -0.3 91 0.5 WSW 13 17 7 9 1022.3 1024.5 0.0
19/09:30pm 1.0 -2.8 -0.5 90 0.6 WSW 9 13 5 7 1022.2 - 0.0
19/09:00pm 1.1 -3.4 -0.5 89 0.6 SW 13 17 7 9 1022.2 1024.3 0.0
19/08:30pm 0.8 -3.4 -0.8 89 0.6 WSW 11 17 6 9 1022.1 - 0.0
19/08:00pm 0.7 -2.7 -0.6 91 0.5 WSW 7 11 4 6 1021.9 1024.1 0.0
19/07:30pm 0.4 -3.8 -0.6 93 0.4 WSW 11 15 6 8 1021.7 - 0.0
19/07:00pm -0.3 -3.8 -1.4 92 0.4 WSW 7 9 4 5 1021.6 1023.8 0.0
19/06:30pm 0.4 -3.8 -1.0 90 0.6 WSW 11 13 6 7 1021.2 - 0.0
19/06:00pm 0.9 -3.6 -0.4 91 0.5 SSW 13 17 7 9 1020.9 1023.1 0.0
19/05:30pm 2.2 -2.3 -0.5 82 1.1 S 13 19 7 10 1020.7 - 0.0
19/05:00pm 4.8 0.4 0.6 74 1.7 SW 13 19 7 10 1020.5 1022.6 0.0
19/04:30pm 5.7 -0.1 -0.1 66 2.4 SW 20 26 11 14 1020.5 - 0.0
19/04:00pm 6.6 0.9 0.3 64 2.6 SW 20 26 11 14 1020.4 1022.5 0.0
19/03:30pm 7.2 1.7 0.4 62 2.9 SW 19 24 10 13 1020.5 - 0.0
19/03:00pm 8.2 3.2 1.6 63 2.9 SSW 17 20 9 11 1020.6 1022.8 0.0
19/02:30pm 7.6 1.9 0.6 61 3.0 SW 20 28 11 15 1020.4 - 0.0
19/02:00pm 7.1 1.4 0.8 64 2.7 SW 20 28 11 15 1020.3 1022.4 0.0
19/01:30pm 7.5 1.9 1.1 64 2.8 SW 20 33 11 18 1020.3 - 0.0
19/01:00pm 6.7 1.6 0.8 66 2.5 SSW 17 24 9 13 1020.6 1022.8 0.0
19/12:30pm 6.2 0.5 0.3 66 2.5 WSW 20 28 11 15 1020.9 - 0.0
19/12:00pm 5.9 1.0 -0.2 65 2.5 WSW 15 22 8 12 1021.5 1023.7 0.0

Other Formats:

Comma delimited format used in spreadsheet applications
http://www.bom.gov.au/fwo/IDT60801/IDT60801.95959.axf

JavaScript Object Notation format (JSON) in row-major order
http://www.bom.gov.au/fwo/IDT60801/IDT60801.95959.json